createdAt,value
2022-11-20T00:00:19.901Z,18.22
2022-11-20T00:02:46.725Z,18.25
2022-11-20T00:05:13.644Z,18.32
2022-11-20T00:07:40.483Z,18.35
2022-11-20T00:10:07.770Z,18.33
2022-11-20T00:12:34.744Z,18.30
2022-11-20T00:15:02.058Z,18.30
2022-11-20T00:17:29.087Z,18.28
2022-11-20T00:19:55.878Z,18.35
2022-11-20T00:22:22.804Z,18.37
2022-11-20T00:24:49.593Z,18.32
2022-11-20T00:27:16.445Z,18.30
2022-11-20T00:29:43.367Z,18.44
2022-11-20T00:32:10.181Z,18.45
2022-11-20T00:34:37.001Z,18.47
2022-11-20T00:37:03.784Z,18.40
2022-11-20T00:39:30.620Z,18.37
2022-11-20T00:41:57.385Z,18.44
2022-11-20T00:44:24.239Z,18.40
2022-11-20T00:46:51.113Z,18.34
2022-11-20T00:49:18.006Z,18.36
2022-11-20T00:51:44.836Z,18.38
2022-11-20T00:54:11.633Z,18.53
2022-11-20T00:56:38.453Z,18.44
2022-11-20T00:59:05.243Z,18.34
2022-11-20T01:01:32.132Z,18.27
2022-11-20T01:04:01.359Z,18.23
2022-11-20T01:06:31.338Z,18.26
2022-11-20T01:09:00.377Z,18.26
2022-11-20T01:11:28.432Z,18.28
2022-11-20T01:13:56.289Z,18.21
2022-11-20T01:16:38.399Z,18.13
2022-11-20T01:19:10.580Z,18.14
2022-11-20T01:21:40.270Z,18.10
2022-11-20T01:24:09.176Z,18.07
2022-11-20T01:26:38.010Z,18.10
2022-11-20T01:29:05.827Z,18.19
2022-11-20T01:31:35.204Z,18.13
2022-11-20T01:34:23.299Z,18.10
2022-11-20T01:36:51.099Z,18.10
2022-11-20T01:39:23.242Z,18.10
2022-11-20T01:42:10.708Z,18.11
2022-11-20T01:44:57.311Z,18.15
2022-11-20T01:47:33.106Z,18.17
2022-11-20T01:50:25.019Z,18.15
2022-11-20T01:53:03.151Z,18.14
2022-11-20T01:55:35.770Z,18.14
2022-11-20T01:58:05.296Z,18.09
2022-11-20T02:00:32.319Z,17.96
2022-11-20T02:03:12.927Z,17.96
2022-11-20T02:05:45.740Z,17.94
2022-11-20T02:08:13.752Z,17.87
2022-11-20T02:10:40.740Z,17.84
2022-11-20T02:13:26.557Z,17.83
2022-11-20T02:15:53.807Z,17.81
2022-11-20T02:18:21.772Z,17.82
2022-11-20T02:20:54.506Z,17.80
2022-11-20T02:23:26.532Z,17.78
2022-11-20T02:25:55.476Z,17.79
2022-11-20T02:28:23.401Z,17.91
2022-11-20T02:30:50.205Z,17.87
2022-11-20T02:33:16.966Z,17.81
2022-11-20T02:35:46.382Z,17.78
2022-11-20T02:38:14.162Z,17.77
2022-11-20T02:40:41.737Z,17.78
2022-11-20T02:43:08.997Z,17.82
2022-11-20T02:45:35.823Z,17.89
2022-11-20T02:48:02.752Z,17.83
2022-11-20T02:50:29.520Z,17.70
2022-11-20T02:52:56.305Z,17.64
2022-11-20T02:55:23.281Z,17.61
2022-11-20T02:57:50.121Z,17.54
2022-11-20T03:00:17.119Z,17.52
2022-11-20T03:02:43.921Z,17.47
2022-11-20T03:05:10.774Z,17.40
2022-11-20T03:07:37.633Z,17.30
2022-11-20T03:10:05.806Z,17.30
2022-11-20T03:12:32.787Z,17.26
2022-11-20T03:14:59.770Z,17.22
2022-11-20T03:17:26.605Z,17.18
2022-11-20T03:19:53.422Z,17.13
2022-11-20T03:22:20.184Z,17.15
2022-11-20T03:24:47.279Z,17.07
2022-11-20T03:27:14.586Z,17.02
2022-11-20T03:29:41.380Z,17.00
2022-11-20T03:32:08.414Z,17.14
2022-11-20T03:34:35.209Z,17.21
2022-11-20T03:37:01.957Z,17.24
2022-11-20T03:39:28.793Z,17.22
2022-11-20T03:41:55.650Z,17.22
2022-11-20T03:44:23.179Z,17.19
2022-11-20T03:46:50.009Z,17.11
2022-11-20T03:49:16.882Z,17.06
2022-11-20T03:51:43.673Z,17.10
2022-11-20T03:54:10.512Z,17.12
2022-11-20T03:56:39.457Z,17.15
2022-11-20T03:59:07.427Z,17.18
2022-11-20T04:01:36.819Z,17.25
2022-11-20T04:04:04.542Z,17.36
2022-11-20T04:06:35.833Z,17.24
2022-11-20T04:09:02.617Z,17.28
2022-11-20T04:11:31.484Z,17.24
2022-11-20T04:14:03.744Z,17.22
2022-11-20T04:16:32.419Z,17.10
2022-11-20T04:19:01.317Z,17.08
2022-11-20T04:21:28.746Z,17.09
2022-11-20T04:23:56.947Z,17.19
2022-11-20T04:26:26.669Z,17.17
2022-11-20T06:33:04.256Z,16.08
2022-11-20T06:35:31.047Z,16.11
2022-11-20T06:37:58.357Z,16.18
2022-11-20T06:40:25.181Z,16.22
2022-11-20T06:42:51.961Z,16.27
2022-11-20T06:45:18.733Z,16.34
2022-11-20T06:47:45.507Z,16.37
2022-11-20T06:50:12.373Z,16.48
2022-11-20T06:52:43.495Z,16.57
2022-11-20T06:55:10.578Z,16.63
2022-11-20T06:57:37.336Z,16.71
2022-11-20T07:00:04.657Z,16.76
2022-11-20T07:02:31.548Z,16.81
2022-11-20T07:04:58.340Z,16.85
2022-11-20T07:07:25.274Z,16.84
2022-11-20T07:09:52.197Z,16.92
2022-11-20T07:12:19.046Z,16.99
2022-11-20T07:14:45.924Z,17.16
2022-11-20T07:17:13.550Z,17.21
2022-11-20T07:19:40.368Z,17.03
2022-11-20T07:22:07.170Z,17.07
2022-11-20T07:24:33.973Z,17.03
2022-11-20T07:27:00.767Z,17.00
2022-11-20T07:29:27.587Z,16.87
2022-11-20T07:31:56.622Z,17.00
2022-11-20T07:34:23.598Z,17.07
2022-11-20T07:36:50.416Z,17.08
2022-11-20T07:39:17.212Z,17.07
2022-11-20T07:41:44.094Z,17.08
2022-11-20T07:44:10.867Z,17.06
2022-11-20T07:46:37.621Z,17.06
2022-11-20T07:49:04.414Z,17.05
2022-11-20T07:51:31.268Z,17.05
2022-11-20T07:53:58.740Z,17.01
2022-11-20T07:56:25.604Z,17.00
2022-11-20T07:58:52.384Z,17.06
2022-11-20T08:01:19.357Z,17.06
2022-11-20T08:03:46.228Z,17.07
2022-11-20T08:06:13.010Z,17.12
2022-11-20T08:08:43.007Z,17.14
2022-11-20T08:11:28.643Z,17.15
2022-11-20T08:14:13.524Z,17.16
2022-11-20T08:16:45.686Z,17.24
2022-11-20T08:19:17.068Z,17.24
2022-11-20T08:21:44.800Z,17.24
2022-11-20T08:24:12.084Z,17.26
2022-11-20T08:26:40.512Z,17.28
2022-11-20T08:29:07.614Z,17.29
2022-11-20T08:31:34.689Z,17.39
2022-11-20T08:34:04.956Z,17.41
2022-11-20T08:36:36.119Z,17.47
2022-11-20T08:39:03.748Z,17.50
2022-11-20T08:41:34.288Z,17.51
2022-11-20T08:44:03.156Z,17.36
2022-11-20T08:46:35.337Z,17.20
2022-11-20T08:49:02.249Z,16.70
2022-11-20T08:51:29.081Z,16.05
2022-11-20T08:53:55.853Z,15.48
2022-11-20T08:56:23.234Z,15.19
2022-11-20T08:59:20.151Z,14.97
2022-11-20T09:01:40.150Z,14.86
2022-11-20T09:04:07.053Z,14.93
2022-11-20T09:06:33.867Z,14.92
2022-11-20T09:09:06.132Z,14.94
2022-11-20T09:11:33.940Z,14.78
2022-11-20T09:14:01.322Z,14.69
2022-11-20T09:16:29.122Z,14.69
2022-11-20T09:19:20.192Z,14.67
2022-11-20T09:21:48.195Z,14.48
2022-11-20T09:24:15.011Z,14.45
2022-11-20T09:26:41.870Z,14.26
2022-11-20T09:29:08.696Z,14.20
2022-11-20T09:31:35.597Z,14.11
2022-11-20T09:34:02.394Z,14.06
2022-11-20T09:36:29.511Z,14.01
2022-11-20T09:38:57.460Z,14.00
2022-11-20T09:42:03.625Z,14.02
2022-11-20T09:44:42.237Z,14.17
2022-11-20T09:47:28.488Z,14.35
2022-11-20T09:50:08.023Z,14.49
2022-11-20T09:52:54.338Z,14.72
2022-11-20T09:55:22.230Z,14.80
2022-11-20T09:57:52.979Z,15.04
2022-11-20T10:00:22.458Z,15.43
2022-11-20T10:03:17.445Z,15.85
2022-11-20T10:05:44.237Z,16.28
2022-11-20T10:08:41.801Z,16.55
2022-11-20T10:11:08.509Z,16.85
2022-11-20T10:13:45.752Z,17.13
2022-11-20T10:16:27.316Z,17.41
2022-11-20T10:19:09.317Z,17.65
2022-11-20T10:21:54.297Z,17.94
2022-11-20T10:24:42.892Z,17.85
2022-11-20T10:27:37.409Z,17.60
2022-11-20T10:30:12.293Z,17.41
2022-11-20T10:32:43.104Z,17.25
2022-11-20T10:35:38.002Z,17.10
2022-11-20T10:38:10.918Z,16.95
2022-11-20T10:40:53.036Z,16.74
2022-11-20T10:43:27.754Z,16.58
2022-11-20T10:46:01.783Z,16.43
2022-11-20T10:48:29.930Z,16.10
2022-11-20T10:51:30.409Z,16.09
2022-11-20T10:54:21.467Z,15.81
2022-11-20T10:56:52.790Z,15.45
2022-11-20T10:59:42.897Z,15.12
2022-11-20T11:02:21.719Z,14.77
2022-11-20T11:04:51.591Z,14.32
2022-11-20T11:07:31.930Z,13.57
2022-11-20T11:09:58.796Z,12.60
2022-11-20T11:12:29.160Z,12.06
2022-11-20T11:14:57.988Z,12.07
2022-11-20T11:17:35.817Z,12.31
2022-11-20T11:20:12.768Z,12.15
2022-11-20T11:22:51.827Z,12.07
2022-11-20T11:25:27.738Z,12.02
2022-11-20T11:27:57.874Z,11.91
2022-11-20T11:30:29.978Z,11.84
2022-11-20T11:33:29.266Z,11.83
2022-11-20T11:36:02.638Z,11.97
2022-11-20T11:38:32.529Z,12.02
2022-11-20T11:41:00.199Z,12.10
2022-11-20T11:43:49.898Z,12.12
2022-11-20T11:46:28.178Z,12.14
2022-11-20T11:49:19.934Z,12.39
2022-11-20T11:51:48.376Z,12.44
2022-11-20T11:54:29.765Z,12.68
2022-11-20T11:57:00.266Z,12.87
2022-11-20T11:59:42.120Z,12.84
2022-11-20T12:02:26.855Z,12.81
2022-11-20T12:05:25.270Z,12.94
2022-11-20T12:08:05.929Z,12.95
2022-11-20T12:10:47.699Z,13.11
2022-11-20T12:13:27.530Z,13.23
2022-11-20T12:15:54.576Z,13.33
2022-11-20T12:18:23.424Z,13.32
2022-11-20T12:21:03.317Z,13.29
2022-11-20T12:23:44.197Z,13.39
2022-11-20T12:27:01.651Z,13.38
2022-11-20T12:29:53.213Z,13.41
2022-11-20T12:32:23.062Z,13.57
2022-11-20T12:35:05.070Z,13.44
2022-11-20T12:37:50.578Z,13.14
2022-11-20T12:40:54.354Z,12.94
2022-11-20T12:43:57.283Z,12.93
2022-11-20T12:46:45.726Z,12.98
2022-11-20T12:50:03.311Z,13.00
2022-11-20T12:52:56.960Z,13.05
2022-11-20T12:55:32.392Z,13.05
2022-11-20T12:58:37.864Z,12.99
2022-11-20T13:01:42.174Z,12.82
2022-11-20T13:04:27.283Z,12.68
2022-11-20T13:06:55.303Z,12.54
2022-11-20T13:09:24.901Z,12.41
2022-11-20T13:12:15.003Z,12.30
2022-11-20T13:14:54.006Z,12.23
2022-11-20T13:17:48.528Z,12.14
2022-11-20T13:20:18.491Z,12.23
2022-11-20T13:22:50.789Z,12.24
2022-11-20T13:25:34.930Z,12.22
2022-11-20T13:28:06.371Z,12.23
2022-11-20T13:30:33.412Z,12.22
2022-11-20T13:33:08.897Z,12.19
2022-11-20T13:35:43.081Z,12.22
2022-11-20T13:38:15.232Z,12.28
2022-11-20T13:40:51.662Z,12.34
2022-11-20T13:43:27.403Z,12.41
2022-11-20T13:46:02.546Z,12.44
2022-11-20T13:48:35.877Z,12.47
2022-11-20T13:51:23.452Z,12.49
2022-11-20T13:54:21.778Z,12.58
2022-11-20T13:56:58.264Z,12.57
2022-11-20T14:00:03.166Z,12.59
2022-11-20T14:02:38.142Z,12.52
2022-11-20T14:05:06.168Z,12.53
2022-11-20T14:07:38.825Z,12.48
2022-11-20T14:10:07.784Z,12.55
2022-11-20T14:12:35.303Z,12.53
2022-11-20T14:15:02.120Z,12.52
2022-11-20T14:17:37.677Z,12.54
2022-11-20T14:20:09.238Z,12.54
2022-11-20T14:22:36.729Z,12.59
2022-11-20T14:25:06.734Z,12.61
2022-11-20T14:27:43.103Z,12.63
2022-11-20T14:30:18.789Z,12.61
2022-11-20T14:32:47.449Z,12.60
2022-11-20T14:35:38.600Z,12.58
2022-11-20T14:38:05.601Z,12.53
2022-11-20T14:40:38.724Z,12.50
2022-11-20T14:43:25.959Z,12.48
2022-11-20T14:46:06.725Z,12.41
2022-11-20T14:48:51.711Z,12.32
2022-11-20T14:51:26.888Z,12.26
